createdAt,value
2022-12-18T00:00:14.721Z,102026.47
2022-12-18T00:03:17.271Z,102031.72
2022-12-18T00:06:20.767Z,102043.69
2022-12-18T00:09:24.698Z,102053.28
2022-12-18T00:12:29.826Z,102039.00
2022-12-18T00:15:35.839Z,101993.91
2022-12-18T00:18:38.706Z,102056.88
2022-12-18T00:21:41.483Z,102055.69
2022-12-18T00:24:44.639Z,102061.16
2022-12-18T00:27:47.663Z,102064.59
2022-12-18T00:30:52.473Z,102071.47
2022-12-18T00:33:58.828Z,102067.25
2022-12-18T00:37:01.088Z,102066.38
2022-12-18T00:40:04.294Z,102070.84
2022-12-18T00:43:06.673Z,102075.13
2022-12-18T00:46:11.740Z,102080.44
2022-12-18T00:49:14.110Z,102085.84
2022-12-18T00:52:16.384Z,102081.72
2022-12-18T00:55:19.362Z,102104.34
2022-12-18T00:58:22.929Z,102104.81
2022-12-18T01:01:25.351Z,102105.66
2022-12-18T01:04:27.786Z,102109.75
2022-12-18T01:07:30.077Z,102091.06
2022-12-18T01:10:32.604Z,102101.41
2022-12-18T01:13:36.689Z,102116.16
2022-12-18T01:16:39.319Z,102113.97
2022-12-18T01:19:41.900Z,102115.28
2022-12-18T01:22:46.096Z,102129.53
2022-12-18T01:25:48.441Z,102129.16
2022-12-18T01:28:50.780Z,102125.53
2022-12-18T01:31:56.231Z,102147.25
2022-12-18T01:34:58.701Z,102139.63
2022-12-18T01:38:02.963Z,102135.59
2022-12-18T01:41:05.260Z,102136.81
2022-12-18T01:44:46.473Z,102133.47
2022-12-18T01:47:51.793Z,102141.69
2022-12-18T01:50:54.193Z,102150.09
2022-12-18T01:53:56.762Z,102141.72
2022-12-18T01:56:59.103Z,102145.97
2022-12-18T02:00:05.458Z,102143.72
2022-12-18T02:03:15.141Z,102160.59
2022-12-18T02:06:23.523Z,102158.19
2022-12-18T02:09:35.964Z,102171.66
2022-12-18T02:12:43.991Z,102174.13
2022-12-18T02:15:52.124Z,102176.59
2022-12-18T02:19:01.894Z,102172.91
2022-12-18T02:22:25.795Z,102177.72
2022-12-18T02:25:36.826Z,102177.59
2022-12-18T02:28:45.840Z,102179.44
2022-12-18T02:31:53.248Z,102179.69
2022-12-18T02:34:57.746Z,102171.63
2022-12-18T02:38:02.008Z,102181.06
2022-12-18T02:41:07.400Z,102182.66
2022-12-18T02:44:14.255Z,102182.06
2022-12-18T02:47:20.694Z,102201.28
2022-12-18T02:50:39.862Z,102205.03
2022-12-18T02:53:53.570Z,102199.38
2022-12-18T02:56:57.759Z,102203.13
2022-12-18T03:00:02.106Z,102213.50
2022-12-18T03:03:14.099Z,102211.34
2022-12-18T03:06:27.197Z,102210.31
2022-12-18T03:09:31.655Z,102221.31
2022-12-18T03:12:40.017Z,102185.34
2022-12-18T03:15:47.373Z,102225.28
2022-12-18T03:18:53.983Z,102227.59
2022-12-18T03:21:58.205Z,102223.28
2022-12-18T03:25:05.518Z,102226.25
2022-12-18T03:28:12.650Z,102232.72
2022-12-18T03:31:16.285Z,102224.75
2022-12-18T03:34:25.316Z,102232.63
2022-12-18T03:37:27.916Z,102236.41
2022-12-18T03:40:45.220Z,102233.75
2022-12-18T03:43:54.554Z,102236.94
2022-12-18T03:47:29.801Z,102239.78
2022-12-18T03:50:35.489Z,102249.13
2022-12-18T03:53:49.393Z,102251.47
2022-12-18T03:56:58.822Z,102252.84
2022-12-18T04:00:11.774Z,102258.25
2022-12-18T04:03:18.077Z,102263.56
2022-12-18T04:06:23.375Z,102268.88
2022-12-18T04:09:27.854Z,102275.66
2022-12-18T04:12:31.126Z,102277.66
2022-12-18T04:15:35.729Z,102280.00
2022-12-18T04:18:39.141Z,102277.53
2022-12-18T04:21:41.576Z,102280.63
2022-12-18T04:24:46.267Z,102281.47
2022-12-18T04:27:56.904Z,102275.56
2022-12-18T04:30:59.224Z,102275.00
2022-12-18T04:34:01.713Z,102282.22
2022-12-18T04:37:04.484Z,102286.78
2022-12-18T04:40:07.771Z,102297.06
2022-12-18T04:43:16.241Z,102302.16
2022-12-18T04:46:18.729Z,102306.19
2022-12-18T04:49:21.036Z,102300.50
2022-12-18T04:52:26.340Z,102304.41
2022-12-18T04:55:28.944Z,102314.13
2022-12-18T04:58:31.311Z,102314.03
2022-12-18T05:01:34.968Z,102309.72
2022-12-18T05:04:37.614Z,102313.28
2022-12-18T05:07:39.926Z,102314.03
2022-12-18T05:10:42.209Z,102304.94
2022-12-18T05:13:45.783Z,102316.19
2022-12-18T05:16:48.173Z,102322.53
2022-12-18T05:19:50.469Z,102318.50
2022-12-18T05:22:53.330Z,102327.91
2022-12-18T05:25:55.677Z,102332.84
2022-12-18T05:28:58.067Z,102332.28
2022-12-18T05:32:00.432Z,102341.41
2022-12-18T05:35:02.862Z,102356.81
2022-12-18T05:38:05.226Z,102359.34
2022-12-18T05:41:08.339Z,102362.00
2022-12-18T05:44:10.640Z,102355.13
2022-12-18T05:47:12.983Z,102364.97
2022-12-18T05:50:15.288Z,102366.00
2022-12-18T05:53:20.443Z,102373.66
2022-12-18T05:56:24.233Z,102364.34
2022-12-18T05:59:26.631Z,102380.13
2022-12-18T06:02:29.202Z,102375.34
2022-12-18T06:05:36.891Z,102386.69
2022-12-18T06:08:42.932Z,102373.22
2022-12-18T06:11:48.532Z,102389.56
2022-12-18T06:14:50.897Z,102390.94
2022-12-18T06:17:53.261Z,102418.09
2022-12-18T06:20:57.436Z,102404.63
2022-12-18T06:23:59.979Z,102402.06
2022-12-18T06:27:02.341Z,102411.53
2022-12-18T06:30:06.160Z,102414.81
2022-12-18T06:33:08.469Z,102409.81
2022-12-18T06:36:12.648Z,102430.63
2022-12-18T06:39:15.068Z,102435.94
2022-12-18T06:42:17.351Z,102436.00
2022-12-18T06:45:19.650Z,102459.59
2022-12-18T06:48:22.041Z,102467.44
2022-12-18T06:51:25.346Z,102459.66
2022-12-18T06:54:27.755Z,102460.63
2022-12-18T06:57:30.280Z,102462.78
2022-12-18T07:00:32.660Z,102470.84
2022-12-18T07:03:35.463Z,102465.66
2022-12-18T07:06:37.855Z,102474.47
2022-12-18T07:09:40.230Z,102469.56
2022-12-18T07:12:42.477Z,102484.41
2022-12-18T07:15:45.492Z,102487.59
2022-12-18T07:18:48.392Z,102476.28
2022-12-18T07:21:51.993Z,102491.84
2022-12-18T07:24:54.373Z,102489.63
2022-12-18T07:27:56.657Z,102497.09
2022-12-18T07:30:59.965Z,102505.28
2022-12-18T07:34:02.277Z,102510.16
2022-12-18T07:37:04.685Z,102504.25
2022-12-18T07:40:07.535Z,102504.25
2022-12-18T07:43:09.750Z,102501.78
2022-12-18T07:46:14.791Z,102509.81
2022-12-18T07:49:17.215Z,102500.09
2022-12-18T07:52:25.582Z,102510.47
2022-12-18T07:55:28.505Z,102511.22
2022-12-18T07:58:32.487Z,102524.19
2022-12-18T08:01:35.649Z,102510.56
2022-12-18T08:04:38.663Z,102521.63
2022-12-18T08:07:41.146Z,102525.00
2022-12-18T08:10:43.451Z,102528.75
2022-12-18T08:13:45.724Z,102531.25
2022-12-18T08:16:48.168Z,102537.31
2022-12-18T08:19:50.461Z,102543.91
2022-12-18T08:22:52.821Z,102553.13
2022-12-18T08:25:55.153Z,102560.53
2022-12-18T08:28:58.473Z,102569.13
2022-12-18T08:32:01.025Z,102583.72
2022-12-18T08:35:03.464Z,102576.63
2022-12-18T08:38:06.026Z,102571.63
2022-12-18T08:41:10.928Z,102569.19
2022-12-18T08:44:32.156Z,102574.19
2022-12-18T08:47:34.488Z,102569.41
2022-12-18T08:50:36.800Z,102582.88
2022-12-18T08:53:39.960Z,102578.94
2022-12-18T08:56:42.495Z,102577.44
2022-12-18T08:59:44.718Z,102591.13
2022-12-18T09:02:47.236Z,102571.88
2022-12-18T09:05:50.166Z,102599.66
2022-12-18T09:08:52.566Z,102593.41
2022-12-18T09:11:54.900Z,102591.75
2022-12-18T09:14:57.771Z,102590.53
2022-12-18T09:18:00.136Z,102579.66
2022-12-18T09:21:09.758Z,102588.63
2022-12-18T09:24:14.586Z,102578.97
2022-12-18T09:27:16.847Z,102582.13
2022-12-18T09:30:19.327Z,102578.78
2022-12-18T09:33:21.634Z,102581.84
2022-12-18T09:36:23.949Z,102561.69
2022-12-18T09:39:26.282Z,102579.69
2022-12-18T09:42:28.685Z,102577.56
2022-12-18T09:45:40.779Z,102575.28
2022-12-18T09:48:46.420Z,102562.13
2022-12-18T09:51:54.383Z,102561.56
2022-12-18T09:55:00.772Z,102562.56
2022-12-18T09:58:09.272Z,102555.16
2022-12-18T10:01:13.828Z,102563.28
2022-12-18T10:04:16.330Z,102576.59
2022-12-18T10:07:29.774Z,102575.09
2022-12-18T10:10:59.981Z,102572.69
2022-12-18T10:14:32.106Z,102572.31
2022-12-18T10:17:49.022Z,102575.34
2022-12-18T10:20:54.929Z,102578.97
2022-12-18T10:24:18.964Z,102582.13
2022-12-18T10:27:25.279Z,102572.81
2022-12-18T10:30:27.831Z,102581.41
2022-12-18T10:33:32.887Z,102581.41
2022-12-18T10:36:35.216Z,102583.22
2022-12-18T10:39:37.717Z,102582.13
2022-12-18T10:42:40.759Z,102591.34
2022-12-18T10:45:44.015Z,102587.94
2022-12-18T10:48:49.518Z,102599.13
2022-12-18T10:51:52.722Z,102598.84
2022-12-18T10:54:59.365Z,102591.84
2022-12-18T10:58:26.591Z,102580.78
2022-12-18T11:01:30.073Z,102577.78
2022-12-18T11:04:36.355Z,102577.28
2022-12-18T11:07:51.206Z,102594.75
2022-12-18T11:10:53.583Z,102569.03
2022-12-18T11:14:08.961Z,102606.97
2022-12-18T11:17:26.157Z,102613.38
2022-12-18T11:20:35.338Z,102614.09
2022-12-18T11:23:39.309Z,102603.72
2022-12-18T11:26:44.430Z,102611.06
2022-12-18T11:29:47.019Z,102612.03
2022-12-18T11:32:52.796Z,102619.41
2022-12-18T11:36:00.343Z,102629.75
2022-12-18T11:39:11.249Z,102622.59
2022-12-18T11:42:21.983Z,102629.72
2022-12-18T11:45:36.012Z,102635.91
2022-12-18T11:49:00.812Z,102634.84
2022-12-18T11:52:25.809Z,102635.44
2022-12-18T11:55:28.340Z,102637.59
2022-12-18T11:59:15.266Z,102631.09
2022-12-18T12:02:47.001Z,102628.16
2022-12-18T12:06:12.339Z,102632.91
2022-12-18T12:10:16.027Z,102628.63
2022-12-18T12:13:57.344Z,102627.78
2022-12-18T12:17:22.418Z,102630.53
2022-12-18T12:20:27.643Z,102640.25
2022-12-18T12:23:39.734Z,102637.94
2022-12-18T12:26:53.586Z,102638.78
2022-12-18T12:30:05.117Z,102641.31
2022-12-18T12:33:48.629Z,102634.31
2022-12-18T12:37:24.004Z,102634.41
2022-12-18T12:43:51.958Z,102630.53
2022-12-18T12:46:57.956Z,102642.63
2022-12-18T12:50:02.827Z,102647.66
2022-12-18T12:53:09.693Z,102649.97
2022-12-18T12:56:19.101Z,102652.34
2022-12-18T12:59:36.816Z,102651.28
2022-12-18T13:02:58.165Z,102664.44
2022-12-18T13:06:04.650Z,102654.91
2022-12-18T13:09:07.582Z,102670.69
2022-12-18T13:16:08.339Z,102687.66
2022-12-18T13:19:26.469Z,102687.84
2022-12-18T13:22:38.599Z,102669.09
2022-12-18T13:25:41.182Z,102664.50
2022-12-18T13:28:49.645Z,102678.97
2022-12-18T13:31:51.926Z,102679.97
2022-12-18T13:35:19.198Z,102676.22
2022-12-18T13:38:36.028Z,102682.25
2022-12-18T13:41:38.448Z,102696.47
2022-12-18T13:44:42.665Z,102696.06
2022-12-18T13:47:45.297Z,102693.84
2022-12-18T13:50:54.446Z,102715.66
2022-12-18T13:54:00.876Z,102726.72
2022-12-18T13:57:04.545Z,102721.97
2022-12-18T14:00:31.694Z,102719.97
2022-12-18T14:03:34.134Z,102714.94
2022-12-18T14:06:36.693Z,102717.34
2022-12-18T14:09:42.836Z,102697.09
2022-12-18T14:12:57.850Z,102694.16
2022-12-18T14:16:06.672Z,102700.97
2022-12-18T14:19:19.495Z,102708.22
2022-12-18T14:22:30.319Z,102716.97
2022-12-18T14:25:32.790Z,102716.84
2022-12-18T14:28:45.348Z,102714.59
2022-12-18T14:31:47.864Z,102716.75
2022-12-18T14:34:51.430Z,102720.91
2022-12-18T14:37:53.750Z,102731.41
2022-12-18T14:41:04.806Z,102726.53
2022-12-18T14:44:08.318Z,102734.81
2022-12-18T14:47:16.183Z,102731.75
2022-12-18T14:50:18.884Z,102725.91
2022-12-18T14:53:35.943Z,102732.38
2022-12-18T14:56:45.845Z,102736.63
2022-12-18T14:59:48.204Z,102738.31
2022-12-18T15:02:55.027Z,102727.25
2022-12-18T15:05:57.555Z,102730.88
2022-12-18T15:09:03.282Z,102734.16
2022-12-18T15:12:06.393Z,102736.72
2022-12-18T15:15:41.552Z,102747.44
2022-12-18T15:18:44.132Z,102756.75
2022-12-18T15:21:46.504Z,102760.66
2022-12-18T15:24:49.051Z,102758.53
2022-12-18T15:27:51.419Z,102746.09
2022-12-18T15:31:01.537Z,102739.34
2022-12-18T15:34:11.839Z,102745.19
2022-12-18T15:37:14.148Z,102750.50
2022-12-18T15:40:18.431Z,102757.72
2022-12-18T15:43:36.548Z,102757.13
2022-12-18T15:46:38.979Z,102755.38
2022-12-18T15:49:42.319Z,102766.19
2022-12-18T15:52:46.538Z,102763.03
2022-12-18T15:56:07.232Z,102766.03
2022-12-18T15:59:14.852Z,102758.72
2022-12-18T16:02:21.693Z,102760.88
2022-12-18T16:05:25.094Z,102758.72
2022-12-18T16:08:27.401Z,102746.28
2022-12-18T16:11:41.812Z,102747.72
2022-12-18T16:14:44.502Z,102745.44
2022-12-18T16:17:48.645Z,102751.00
2022-12-18T16:20:54.165Z,102744.94
2022-12-18T16:24:00.363Z,102752.03
2022-12-18T16:27:02.680Z,102765.72
2022-12-18T16:30:05.913Z,102778.22
2022-12-18T16:33:08.602Z,102782.13
2022-12-18T16:36:11.102Z,102785.69
2022-12-18T16:39:13.485Z,102773.78
2022-12-18T16:42:21.294Z,102771.31
2022-12-18T16:45:24.457Z,102774.53
2022-12-18T16:48:29.971Z,102754.25
2022-12-18T16:51:33.821Z,102767.03
2022-12-18T16:54:38.440Z,102768.81
2022-12-18T16:57:44.000Z,102751.31
2022-12-18T17:00:46.764Z,102749.47
2022-12-18T17:03:56.263Z,102732.19
2022-12-18T17:06:59.403Z,102725.56
2022-12-18T17:10:01.754Z,102731.88
2022-12-18T17:13:04.183Z,102724.25
2022-12-18T17:16:07.735Z,102723.56
2022-12-18T17:19:15.343Z,102726.97
2022-12-18T17:22:20.699Z,102728.97
2022-12-18T17:25:23.079Z,102730.19
2022-12-18T17:28:27.987Z,102729.72
2022-12-18T17:31:31.473Z,102727.53
2022-12-18T17:34:33.739Z,102712.66
2022-12-18T17:37:36.089Z,102704.69
2022-12-18T17:40:43.132Z,102716.16
2022-12-18T17:43:58.394Z,102718.06
2022-12-18T17:47:00.856Z,102719.41
2022-12-18T17:50:03.610Z,102716.38
2022-12-18T17:53:08.704Z,102704.25
2022-12-18T17:56:15.724Z,102712.88
2022-12-18T17:59:18.292Z,102698.66
2022-12-18T18:02:21.338Z,102722.94
2022-12-18T18:05:23.820Z,102728.59
2022-12-18T18:08:28.608Z,102721.56
2022-12-18T18:11:51.628Z,102710.56
2022-12-18T18:14:56.299Z,102700.75
2022-12-18T18:17:58.690Z,102693.06
2022-12-18T18:21:13.223Z,102699.41
2022-12-18T18:24:23.056Z,102699.28
2022-12-18T18:27:25.793Z,102689.84
2022-12-18T18:30:30.544Z,102692.91
2022-12-18T18:33:34.124Z,102702.97
2022-12-18T18:36:36.550Z,102698.03
2022-12-18T18:39:39.195Z,102701.09
2022-12-18T18:42:43.010Z,102705.63
2022-12-18T18:45:46.081Z,102724.47
2022-12-18T18:48:53.194Z,102722.00
2022-12-18T18:51:57.466Z,102722.59
2022-12-18T18:55:12.688Z,102735.50
2022-12-18T18:58:15.647Z,102737.63
2022-12-18T19:01:22.150Z,102744.69
2022-12-18T19:04:24.685Z,102736.53
2022-12-18T19:07:31.289Z,102743.56
2022-12-18T19:10:36.056Z,102745.63
2022-12-18T19:13:38.830Z,102740.53
2022-12-18T19:16:42.880Z,102753.56
2022-12-18T19:19:45.687Z,102753.56
2022-12-18T19:22:55.584Z,102751.63
2022-12-18T19:26:27.110Z,102748.19
2022-12-18T19:29:29.779Z,102759.88
2022-12-18T19:32:32.730Z,102746.50
2022-12-18T19:35:35.261Z,102769.53
2022-12-18T19:38:39.274Z,102764.69
2022-12-18T19:41:45.784Z,102760.31
2022-12-18T19:44:48.175Z,102755.69
2022-12-18T19:47:50.801Z,102748.31
2022-12-18T19:50:54.499Z,102749.25
2022-12-18T19:53:59.092Z,102740.69
2022-12-18T19:57:04.692Z,102747.53
2022-12-18T20:00:14.063Z,102750.84
2022-12-18T20:03:28.734Z,102751.25
2022-12-18T20:06:46.225Z,102750.00
2022-12-18T20:09:49.362Z,102745.94
2022-12-18T20:12:55.098Z,102749.09
2022-12-18T20:15:59.339Z,102743.13
2022-12-18T20:19:01.691Z,102750.78
2022-12-18T20:22:04.447Z,102740.63
2022-12-18T20:25:07.232Z,102727.00
2022-12-18T20:28:09.518Z,102713.19
2022-12-18T20:31:13.799Z,102715.91
2022-12-18T20:34:16.612Z,102717.53
2022-12-18T20:37:19.998Z,102715.03
2022-12-18T20:40:24.071Z,102719.69
2022-12-18T20:43:26.410Z,102721.72
2022-12-18T20:46:28.788Z,102717.31
2022-12-18T20:49:31.301Z,102718.66
2022-12-18T20:52:34.754Z,102733.84
2022-12-18T20:55:42.628Z,102736.44
2022-12-18T20:58:45.063Z,102735.09
2022-12-18T21:07:12.903Z,102736.78
2022-12-18T21:10:15.505Z,102735.19
2022-12-18T21:13:17.938Z,102724.22
2022-12-18T21:16:20.938Z,102731.56
2022-12-18T21:19:25.650Z,102728.31
2022-12-18T21:22:28.540Z,102728.75
2022-12-18T21:25:31.005Z,102718.34
2022-12-18T21:51:40.076Z,102739.28
2022-12-18T21:54:42.330Z,102739.97
2022-12-18T21:57:44.597Z,102750.47
2022-12-18T22:00:48.757Z,102751.25
2022-12-18T22:03:51.277Z,102728.38
2022-12-18T22:06:53.834Z,102740.78
2022-12-18T22:09:56.140Z,102744.19
2022-12-18T22:12:59.951Z,102731.13
2022-12-18T22:16:02.234Z,102728.31
2022-12-18T22:19:04.600Z,102745.19
2022-12-18T22:22:06.893Z,102740.31
2022-12-18T22:25:10.767Z,102751.81
2022-12-18T22:28:31.969Z,102747.09
2022-12-18T22:33:49.002Z,102742.59
2022-12-18T22:36:51.447Z,102743.13
2022-12-18T22:39:53.974Z,102734.72
2022-12-18T22:42:56.524Z,102733.59
2022-12-18T22:45:58.816Z,102740.13
2022-12-18T22:49:01.238Z,102729.06
2022-12-18T22:52:09.422Z,102727.66
2022-12-18T22:55:11.805Z,102719.00
2022-12-18T22:58:15.004Z,102723.25
2022-12-18T23:01:22.998Z,102714.41
2022-12-18T23:04:29.074Z,102711.28
2022-12-18T23:07:38.852Z,102712.69
2022-12-18T23:10:41.112Z,102726.69
2022-12-18T23:13:43.967Z,102726.59
2022-12-18T23:16:46.440Z,102705.47
2022-12-18T23:19:50.330Z,102702.47
2022-12-18T23:22:53.031Z,102700.84
2022-12-18T23:26:11.213Z,102688.84
2022-12-18T23:29:13.563Z,102682.03
2022-12-18T23:32:15.946Z,102680.91
2022-12-18T23:37:12.518Z,102685.16
2022-12-18T23:44:41.051Z,102679.38
2022-12-18T23:47:43.337Z,102675.78
2022-12-18T23:50:47.598Z,102671.59
2022-12-18T23:53:50.609Z,102668.31
2022-12-18T23:56:52.973Z,102652.31
2022-12-18T23:59:55.315Z,102669.72
